Time;durP1;ratioP1;P1;durP2;ratioP2;P2;SDS_P1;SDS_P2;PMS_P1;PMS_P2;Temp;Humidity;BMP_temperature;BMP_pressure;BME280_temperature;BME280_humidity;BME280_pressure;Samples;Min_cycle;Max_cycle;Signal;HPM_P1;HPM_P2
2021/03/12 00:00:34;;;;;;;24.17;13.10;;;;;;;;;;4996614;28;20026;-72
2021/03/12 00:03:00;;;;;;;22.75;13.10;;;;;;;;;;4978949;28;20054;-73
2021/03/12 00:05:26;;;;;;;21.70;12.77;;;;;;;;;;4995771;28;20027;-71
2021/03/12 00:07:53;;;;;;;22.17;12.27;;;;;;;;;;4978836;28;20541;-71
2021/03/12 00:10:25;;;;;;;20.65;12.10;;;;;;;;;;4996160;28;20030;-71
2021/03/12 00:12:51;;;;;;;15.87;9.10;;;;;;;;;;4978825;28;20230;-71
2021/03/12 00:15:19;;;;;;;20.08;11.95;;;;;;;;;;4978681;28;20026;-72
2021/03/12 00:17:47;;;;;;;19.80;11.88;;;;;;;;;;4978567;28;20038;-70
2021/03/12 00:20:17;;;;;;;23.30;12.45;;;;;;;;;;4978575;28;20121;-71
2021/03/12 00:22:44;;;;;;;21.05;12.20;;;;;;;;;;4978473;28;20034;-72
2021/03/12 00:25:11;;;;;;;23.17;13.18;;;;;;;;;;4996858;28;20027;-71
2021/03/12 00:27:37;;;;;;;27.25;14.80;;;;;;;;;;4996926;28;20105;-72
2021/03/12 00:30:04;;;;;;;24.02;14.02;;;;;;;;;;4980338;28;20024;-72
2021/03/12 00:32:31;;;;;;;21.67;12.52;;;;;;;;;;4995945;28;20027;-71
2021/03/12 00:34:57;;;;;;;19.98;12.68;;;;;;;;;;4978763;28;20034;-71
2021/03/12 00:37:23;;;;;;;23.23;12.23;;;;;;;;;;4978631;28;20026;-73
2021/03/12 00:39:49;;;;;;;19.10;12.85;;;;;;;;;;4995189;28;20029;-73
2021/03/12 00:42:15;;;;;;;18.70;11.80;;;;;;;;;;4995670;28;20030;-73
2021/03/12 00:44:41;;;;;;;19.55;11.98;;;;;;;;;;4995375;28;20045;-72
2021/03/12 00:47:07;;;;;;;21.48;11.90;;;;;;;;;;4995298;28;20045;-72
2021/03/12 00:49:34;;;;;;;20.13;11.77;;;;;;;;;;4995255;28;20026;-72
2021/03/12 00:52:00;;;;;;;21.15;11.57;;;;;;;;;;4995166;28;20050;-72
2021/03/12 00:54:26;;;;;;;21.40;10.90;;;;;;;;;;4977715;28;20029;-73
2021/03/12 00:56:52;;;;;;;18.67;12.07;;;;;;;;;;4977945;28;20019;-72
2021/03/12 00:59:18;;;;;;;19.45;11.55;;;;;;;;;;4995164;28;20076;-73
2021/03/12 01:01:45;;;;;;;20.17;12.40;;;;;;;;;;4995477;28;20113;-72
2021/03/12 01:04:11;;;;;;;19.15;11.52;;;;;;;;;;4977514;28;20113;-72
2021/03/12 01:06:37;;;;;;;18.83;11.10;;;;;;;;;;4977494;28;20377;-72
2021/03/12 01:09:04;;;;;;;19.17;11.45;;;;;;;;;;4977847;28;20033;-73
2021/03/12 01:11:30;;;;;;;18.77;11.25;;;;;;;;;;4994893;28;20030;-72
2021/03/12 01:13:56;;;;;;;19.45;11.45;;;;;;;;;;4994645;28;20026;-72
2021/03/12 01:16:22;;;;;;;20.92;12.25;;;;;;;;;;4995041;28;20049;-72
2021/03/12 01:18:49;;;;;;;16.52;11.35;;;;;;;;;;4995191;28;20034;-72
2021/03/12 01:21:15;;;;;;;18.85;11.52;;;;;;;;;;4994552;28;20037;-71
2021/03/12 01:23:41;;;;;;;18.63;11.68;;;;;;;;;;4995173;28;20033;-73
2021/03/12 01:26:07;;;;;;;19.48;12.00;;;;;;;;;;4977324;28;20046;-73
2021/03/12 01:28:33;;;;;;;21.23;11.90;;;;;;;;;;4994270;28;20377;-72
2021/03/12 01:30:59;;;;;;;18.60;11.48;;;;;;;;;;4994808;28;20034;-72
2021/03/12 01:33:26;;;;;;;18.83;11.05;;;;;;;;;;4977484;28;20374;-72
2021/03/12 01:35:52;;;;;;;17.25;11.43;;;;;;;;;;4976977;28;20022;-72
2021/03/12 01:38:18;;;;;;;16.58;10.70;;;;;;;;;;4994587;28;20023;-72
2021/03/12 01:40:45;;;;;;;20.17;12.30;;;;;;;;;;4977653;28;20030;-72
2021/03/12 01:43:11;;;;;;;17.52;11.30;;;;;;;;;;4976326;28;20037;-72
2021/03/12 01:45:40;;;;;;;20.88;12.48;;;;;;;;;;4976708;28;20113;-71
2021/03/12 01:48:13;;;;;;;19.58;11.45;;;;;;;;;;4976960;28;20026;-72
2021/03/12 01:50:40;;;;;;;18.85;11.90;;;;;;;;;;4994172;28;20026;-72
2021/03/12 01:53:10;;;;;;;19.25;11.40;;;;;;;;;;4976412;28;20046;-72
2021/03/12 01:55:37;;;;;;;21.13;12.48;;;;;;;;;;4977044;28;20034;-72
2021/03/12 01:58:03;;;;;;;21.27;12.27;;;;;;;;;;4994369;28;20022;-72
2021/03/12 02:00:30;;;;;;;17.50;11.25;;;;;;;;;;4994253;28;20025;-72
2021/03/12 02:02:56;;;;;;;19.98;12.15;;;;;;;;;;4994207;28;20073;-72
2021/03/12 02:05:22;;;;;;;18.70;10.90;;;;;;;;;;4994530;28;20076;-72
2021/03/12 02:07:49;;;;;;;18.80;11.75;;;;;;;;;;4994219;28;20102;-71
2021/03/12 02:10:23;;;;;;;18.20;12.55;;;;;;;;;;4976420;28;20378;-72
2021/03/12 02:12:55;;;;;;;19.48;12.43;;;;;;;;;;4994236;28;20421;-71
2021/03/12 02:15:28;;;;;;;18.77;11.75;;;;;;;;;;4994158;28;20029;-72
2021/03/12 02:17:57;;;;;;;19.95;12.35;;;;;;;;;;4994014;28;20077;-72
2021/03/12 02:20:23;;;;;;;20.17;12.55;;;;;;;;;;4994326;28;20514;-72
2021/03/12 02:22:51;;;;;;;19.80;12.18;;;;;;;;;;4977151;28;20057;-72
2021/03/12 02:25:18;;;;;;;17.92;11.52;;;;;;;;;;4976372;28;20033;-72
2021/03/12 02:27:45;;;;;;;20.58;12.20;;;;;;;;;;4994109;28;20019;-71
2021/03/12 02:30:11;;;;;;;19.95;11.70;;;;;;;;;;4993776;28;20031;-72
2021/03/12 02:32:39;;;;;;;21.88;12.93;;;;;;;;;;4975986;28;20109;-72
2021/03/12 02:35:08;;;;;;;19.33;12.27;;;;;;;;;;4976578;28;20477;-71
2021/03/12 02:37:34;;;;;;;20.45;11.65;;;;;;;;;;4976214;28;20027;-72
2021/03/12 02:40:00;;;;;;;21.40;12.68;;;;;;;;;;4993709;28;20026;-72
2021/03/12 02:42:28;;;;;;;20.45;12.15;;;;;;;;;;4993589;28;20061;-71
2021/03/12 02:44:54;;;;;;;23.08;13.20;;;;;;;;;;4976333;28;20544;-71
2021/03/12 02:47:23;;;;;;;21.38;13.82;;;;;;;;;;4976716;28;20381;-72
2021/03/12 02:49:50;;;;;;;23.35;12.68;;;;;;;;;;4993592;28;20506;-71
2021/03/12 02:52:17;;;;;;;23.15;12.95;;;;;;;;;;4976061;28;20050;-70
2021/03/12 02:54:47;;;;;;;23.00;12.35;;;;;;;;;;4977235;28;20057;-71
2021/03/12 02:57:20;;;;;;;19.65;12.98;;;;;;;;;;4997737;28;20085;-73
2021/03/12 02:59:48;;;;;;;19.58;12.23;;;;;;;;;;4979622;28;20029;-70
2021/03/12 03:02:14;;;;;;;22.15;12.90;;;;;;;;;;4979800;28;20122;-73
2021/03/12 03:04:40;;;;;;;20.73;12.18;;;;;;;;;;4979785;28;20034;-72
2021/03/12 03:07:10;;;;;;;21.58;12.88;;;;;;;;;;4979765;28;20046;-71
2021/03/12 03:09:37;;;;;;;19.63;12.73;;;;;;;;;;4996977;28;20023;-71
2021/03/12 03:12:04;;;;;;;20.48;12.20;;;;;;;;;;4997066;28;20441;-72
2021/03/12 03:14:31;;;;;;;19.55;12.52;;;;;;;;;;4979050;28;20018;-71
2021/03/12 03:16:59;;;;;;;20.23;12.15;;;;;;;;;;4979768;28;20488;-73
2021/03/12 03:19:25;;;;;;;20.27;12.57;;;;;;;;;;4996787;28;20029;-70
2021/03/12 03:21:51;;;;;;;18.80;11.73;;;;;;;;;;4996789;28;20026;-70
2021/03/12 03:24:17;;;;;;;20.23;13.38;;;;;;;;;;4997236;28;20030;-71
2021/03/12 03:26:43;;;;;;;19.52;12.50;;;;;;;;;;4979095;28;20022;-71
2021/03/12 03:29:10;;;;;;;17.58;12.25;;;;;;;;;;4997195;28;20022;-72
2021/03/12 03:31:36;;;;;;;19.55;13.07;;;;;;;;;;4979349;28;20030;-73
2021/03/12 03:34:02;;;;;;;18.33;11.98;;;;;;;;;;4996489;28;20064;-72
2021/03/12 03:36:28;;;;;;;21.60;12.50;;;;;;;;;;4979383;28;20026;-72
2021/03/12 03:38:54;;;;;;;20.58;12.32;;;;;;;;;;4979762;28;20022;-72
2021/03/12 03:41:20;;;;;;;19.23;12.07;;;;;;;;;;4996492;28;20023;-72
2021/03/12 03:43:49;;;;;;;20.50;13.05;;;;;;;;;;4996635;28;20034;-72
2021/03/12 03:46:16;;;;;;;20.77;12.65;;;;;;;;;;4996589;28;20033;-70
2021/03/12 03:48:42;;;;;;;20.75;12.27;;;;;;;;;;4995959;28;20102;-72
2021/03/12 03:51:09;;;;;;;20.83;12.50;;;;;;;;;;4996483;28;20090;-71
2021/03/12 03:53:36;;;;;;;19.33;12.80;;;;;;;;;;4975200;28;20051;-71
2021/03/12 03:56:04;;;;;;;22.73;13.35;;;;;;;;;;4976920;28;20030;-71
2021/03/12 03:58:30;;;;;;;21.13;13.02;;;;;;;;;;4975351;28;20027;-72
2021/03/12 04:00:57;;;;;;;22.42;13.50;;;;;;;;;;4975519;28;20023;-71
2021/03/12 04:03:23;;;;;;;23.42;14.25;;;;;;;;;;4975299;28;20481;-71
2021/03/12 04:05:50;;;;;;;23.55;14.50;;;;;;;;;;4975167;28;20023;-71
2021/03/12 04:08:17;;;;;;;24.33;14.32;;;;;;;;;;4976281;28;20427;-70
2021/03/12 04:10:43;;;;;;;24.33;14.32;;;;;;;;;;4975435;28;20023;-72
2021/03/12 04:13:10;;;;;;;22.45;13.15;;;;;;;;;;4975381;28;20019;-71
2021/03/12 04:15:36;;;;;;;22.38;13.05;;;;;;;;;;4975501;28;20370;-72
2021/03/12 04:18:03;;;;;;;19.90;12.45;;;;;;;;;;4975304;28;20034;-71
2021/03/12 04:20:29;;;;;;;21.10;12.50;;;;;;;;;;4976702;28;20023;-71
2021/03/12 04:22:57;;;;;;;23.75;13.10;;;;;;;;;;4974924;28;20034;-70
2021/03/12 04:25:23;;;;;;;19.77;12.43;;;;;;;;;;4975132;28;20061;-70
2021/03/12 04:27:50;;;;;;;23.15;13.10;;;;;;;;;;4976691;28;20109;-72
2021/03/12 04:30:17;;;;;;;19.73;13.02;;;;;;;;;;4976010;28;20454;-72
2021/03/12 04:32:43;;;;;;;24.67;14.18;;;;;;;;;;4976822;28;20081;-70
2021/03/12 04:35:09;;;;;;;23.80;13.20;;;;;;;;;;4975986;28;20062;-72
2021/03/12 04:37:36;;;;;;;21.67;13.30;;;;;;;;;;4974880;28;20023;-70
2021/03/12 04:40:06;;;;;;;21.63;13.23;;;;;;;;;;4974906;28;20100;-71
2021/03/12 04:42:33;;;;;;;20.95;13.02;;;;;;;;;;4976261;28;20488;-72
2021/03/12 04:44:59;;;;;;;22.88;13.43;;;;;;;;;;4974512;28;20367;-71
2021/03/12 04:47:25;;;;;;;21.05;13.32;;;;;;;;;;4976513;28;20109;-70
2021/03/12 04:49:52;;;;;;;21.67;13.48;;;;;;;;;;4976246;28;20023;-72
2021/03/12 04:52:18;;;;;;;22.10;13.38;;;;;;;;;;4975017;28;20168;-71
2021/03/12 04:54:46;;;;;;;22.98;13.77;;;;;;;;;;4975800;28;20019;-70
2021/03/12 04:57:13;;;;;;;21.88;12.77;;;;;;;;;;4978683;28;20025;-70
2021/03/12 04:59:39;;;;;;;22.30;13.10;;;;;;;;;;4978529;28;20026;-73
2021/03/12 05:02:05;;;;;;;22.13;13.57;;;;;;;;;;4977653;28;20477;-71
2021/03/12 05:04:32;;;;;;;24.55;14.20;;;;;;;;;;4975208;28;20362;-71
2021/03/12 05:06:58;;;;;;;25.60;14.18;;;;;;;;;;4975951;28;20122;-72
2021/03/12 05:09:24;;;;;;;24.40;14.48;;;;;;;;;;4974758;28;20034;-72
2021/03/12 05:11:50;;;;;;;26.90;15.02;;;;;;;;;;4975765;28;20034;-71
2021/03/12 05:14:16;;;;;;;24.15;13.73;;;;;;;;;;4976707;28;20022;-72
2021/03/12 05:16:43;;;;;;;21.60;13.10;;;;;;;;;;4974525;28;20084;-70
2021/03/12 05:19:09;;;;;;;22.17;13.48;;;;;;;;;;4974272;28;20027;-72
2021/03/12 05:21:36;;;;;;;22.42;13.07;;;;;;;;;;4974233;28;20030;-72
2021/03/12 05:24:02;;;;;;;20.48;13.05;;;;;;;;;;4974205;28;20050;-71
2021/03/12 05:26:28;;;;;;;21.85;13.15;;;;;;;;;;4974783;28;20027;-70
2021/03/12 05:28:54;;;;;;;22.73;13.55;;;;;;;;;;4975338;28;20097;-71
2021/03/12 05:31:23;;;;;;;20.45;12.70;;;;;;;;;;4974063;28;20078;-71
2021/03/12 05:33:51;;;;;;;21.60;13.68;;;;;;;;;;4973530;28;20027;-71
2021/03/12 05:36:18;;;;;;;25.42;14.10;;;;;;;;;;4975206;28;20050;-71
2021/03/12 05:38:44;;;;;;;29.83;14.32;;;;;;;;;;4974457;28;20025;-72
2021/03/12 05:41:10;;;;;;;23.25;14.40;;;;;;;;;;4974466;28;20026;-71
2021/03/12 05:43:36;;;;;;;26.80;13.95;;;;;;;;;;4973818;28;20038;-71
2021/03/12 05:46:03;;;;;;;25.55;13.45;;;;;;;;;;4973792;28;20057;-69
2021/03/12 05:48:37;;;;;;;23.55;12.95;;;;;;;;;;4974735;28;20029;-69
2021/03/12 05:51:04;;;;;;;25.90;14.10;;;;;;;;;;4992271;28;20054;-70
2021/03/12 05:53:30;;;;;;;24.00;12.93;;;;;;;;;;5009784;28;20053;-74
2021/03/12 05:55:58;;;;;;;27.27;14.00;;;;;;;;;;5001311;28;20109;-70
2021/03/12 05:58:24;;;;;;;24.67;14.18;;;;;;;;;;4989656;28;20474;-70
2021/03/12 06:00:50;;;;;;;23.27;13.77;;;;;;;;;;4993452;28;20072;-71
2021/03/12 06:03:17;;;;;;;25.80;15.32;;;;;;;;;;4991870;28;20038;-68
2021/03/12 06:05:44;;;;;;;28.92;15.65;;;;;;;;;;4993895;28;20488;-73
2021/03/12 06:08:10;;;;;;;28.15;15.98;;;;;;;;;;4992485;28;20022;-73
2021/03/12 06:10:36;;;;;;;27.95;14.98;;;;;;;;;;4994034;28;20081;-70
2021/03/12 06:13:02;;;;;;;26.65;15.73;;;;;;;;;;4993686;28;20018;-71
2021/03/12 06:15:36;;;;;;;29.15;16.20;;;;;;;;;;4993285;28;20026;-69
2021/03/12 06:18:28;;;;;;;28.05;15.48;;;;;;;;;;4992086;28;20044;-69
2021/03/12 06:20:55;;;;;;;28.52;15.70;;;;;;;;;;4991686;28;20034;-70
2021/03/12 06:23:39;;;;;;;28.80;15.00;;;;;;;;;;4993523;28;20061;-70
2021/03/12 06:26:06;;;;;;;29.25;15.52;;;;;;;;;;4994338;28;20027;-72
2021/03/12 06:28:32;;;;;;;25.55;14.85;;;;;;;;;;4992869;28;20031;-68
2021/03/12 06:30:59;;;;;;;27.50;15.50;;;;;;;;;;4996830;28;20049;-69
2021/03/12 06:33:29;;;;;;;28.73;15.95;;;;;;;;;;4992798;28;20027;-68
2021/03/12 06:35:55;;;;;;;30.95;16.10;;;;;;;;;;4979554;28;20038;-70
2021/03/12 06:38:22;;;;;;;35.88;16.25;;;;;;;;;;4997000;28;20023;-70
2021/03/12 06:40:48;;;;;;;30.52;16.88;;;;;;;;;;4996164;28;20030;-69
2021/03/12 06:43:15;;;;;;;36.50;18.75;;;;;;;;;;4993330;28;20062;-70
2021/03/12 06:45:41;;;;;;;40.63;21.00;;;;;;;;;;4992388;28;20474;-69
2021/03/12 06:48:23;;;;;;;47.22;22.65;;;;;;;;;;4976469;28;20030;-68
2021/03/12 06:50:53;;;;;;;40.97;21.83;;;;;;;;;;4977639;28;20019;-68
2021/03/12 06:53:32;;;;;;;39.97;20.42;;;;;;;;;;4993537;28;20128;-69
2021/03/12 06:55:59;;;;;;;34.97;20.00;;;;;;;;;;4997145;28;20157;-72
2021/03/12 06:58:26;;;;;;;42.75;22.88;;;;;;;;;;4996504;28;20029;-70
2021/03/12 07:00:52;;;;;;;41.92;22.25;;;;;;;;;;4996965;28;20034;-70
2021/03/12 07:03:18;;;;;;;43.15;21.67;;;;;;;;;;5006360;28;20110;-74
2021/03/12 07:06:04;;;;;;;32.53;18.95;;;;;;;;;;4999616;28;20477;-72
2021/03/12 07:08:40;;;;;;;32.75;18.60;;;;;;;;;;4988586;28;20026;-70
2021/03/12 07:11:26;;;;;;;33.28;18.35;;;;;;;;;;5006880;28;20045;-71
2021/03/12 07:13:53;;;;;;;33.78;17.73;;;;;;;;;;4988275;28;20026;-72
2021/03/12 07:16:19;;;;;;;34.80;18.50;;;;;;;;;;5008123;28;20022;-72
2021/03/12 07:18:46;;;;;;;31.70;18.45;;;;;;;;;;5004724;28;20427;-70
2021/03/12 07:21:13;;;;;;;36.05;19.15;;;;;;;;;;5004967;28;20022;-70
2021/03/12 07:23:41;;;;;;;33.22;19.15;;;;;;;;;;4996072;28;20025;-72
2021/03/12 07:26:10;;;;;;;31.80;19.38;;;;;;;;;;5007157;28;20045;-74
2021/03/12 07:28:36;;;;;;;35.42;21.25;;;;;;;;;;5004451;28;20026;-74
2021/03/12 07:31:05;;;;;;;36.95;21.83;;;;;;;;;;4985694;28;20046;-71
2021/03/12 07:33:32;;;;;;;42.05;22.05;;;;;;;;;;5006148;28;20424;-68
2021/03/12 07:35:59;;;;;;;44.35;22.92;;;;;;;;;;5002421;28;20462;-67
2021/03/12 07:38:26;;;;;;;44.75;23.98;;;;;;;;;;5015769;28;20030;-66
2021/03/12 07:40:53;;;;;;;47.25;25.63;;;;;;;;;;4997924;28;20439;-67
2021/03/12 07:43:20;;;;;;;49.78;26.65;;;;;;;;;;5015651;28;20025;-68
2021/03/12 07:45:46;;;;;;;48.40;26.58;;;;;;;;;;4997273;28;20061;-68
2021/03/12 07:48:13;;;;;;;51.15;26.38;;;;;;;;;;5004331;28;20065;-71
2021/03/12 07:50:40;;;;;;;43.88;25.52;;;;;;;;;;4989692;28;20026;-68
2021/03/12 07:53:06;;;;;;;43.67;25.13;;;;;;;;;;4986259;28;20124;-71
2021/03/12 07:55:35;;;;;;;53.60;27.23;;;;;;;;;;5006136;28;20026;-72
2021/03/12 07:58:08;;;;;;;58.22;30.70;;;;;;;;;;4980605;28;20068;-71
2021/03/12 08:00:52;;;;;;;61.20;31.90;;;;;;;;;;5006694;28;20022;-71
2021/03/12 08:03:28;;;;;;;56.40;30.10;;;;;;;;;;4995637;28;20034;-73
2021/03/12 08:05:54;;;;;;;60.80;29.88;;;;;;;;;;5006560;28;20024;-69
2021/03/12 08:08:41;;;;;;;58.63;29.52;;;;;;;;;;5003708;28;20018;-71
2021/03/12 08:11:16;;;;;;;64.80;32.30;;;;;;;;;;4995734;28;20096;-68
2021/03/12 08:13:42;;;;;;;58.67;33.00;;;;;;;;;;4998211;28;20076;-70
2021/03/12 08:16:09;;;;;;;51.58;27.98;;;;;;;;;;5003244;28;20473;-69
2021/03/12 08:18:35;;;;;;;49.28;26.80;;;;;;;;;;4978230;28;20030;-70
2021/03/12 08:21:22;;;;;;;47.45;25.75;;;;;;;;;;4999124;28;20026;-69
2021/03/12 08:23:48;;;;;;;51.83;28.30;;;;;;;;;;4998494;28;20489;-69
2021/03/12 08:26:34;;;;;;;55.95;29.33;;;;;;;;;;4988260;28;20029;-68
2021/03/12 08:29:19;;;;;;;50.47;28.58;;;;;;;;;;5029592;28;20079;-66
2021/03/12 08:31:45;;;;;;;51.30;27.60;;;;;;;;;;5012176;28;20037;-66
2021/03/12 08:34:29;;;;;;;65.18;34.22;;;;;;;;;;5004591;28;20311;-67
2021/03/12 08:36:57;;;;;;;66.43;35.03;;;;;;;;;;5006620;28;20029;-66
2021/03/12 08:39:30;;;;;;;72.65;38.35;;;;;;;;;;5006626;28;20393;-66
2021/03/12 08:41:57;;;;;;;71.57;38.38;;;;;;;;;;4995438;28;20065;-65
2021/03/12 08:44:23;;;;;;;72.85;39.45;;;;;;;;;;4997290;28;20109;-66
2021/03/12 08:46:50;;;;;;;72.90;38.25;;;;;;;;;;5000591;28;20031;-66
2021/03/12 08:49:16;;;;;;;65.57;34.58;;;;;;;;;;4993953;28;20525;-68
2021/03/12 08:51:42;;;;;;;54.67;29.58;;;;;;;;;;4993964;28;20035;-66
2021/03/12 08:54:32;;;;;;;50.58;26.98;;;;;;;;;;4993852;28;20030;-67
2021/03/12 08:56:59;;;;;;;45.42;25.20;;;;;;;;;;5013852;28;20505;-69
2021/03/12 08:59:29;;;;;;;48.45;27.67;;;;;;;;;;5013364;28;20076;-67
2021/03/12 09:01:57;;;;;;;69.45;36.30;;;;;;;;;;4996371;28;20022;-67
2021/03/12 09:04:30;;;;;;;67.85;37.92;;;;;;;;;;5014396;28;20477;-66
2021/03/12 09:07:00;;;;;;;67.00;37.45;;;;;;;;;;5013938;28;20037;-66
2021/03/12 09:09:27;;;;;;;66.72;36.55;;;;;;;;;;5013424;28;20057;-67
2021/03/12 09:11:57;;;;;;;69.53;38.38;;;;;;;;;;5005697;28;20369;-67
2021/03/12 09:14:23;;;;;;;63.47;33.50;;;;;;;;;;5001899;28;20474;-65
2021/03/12 09:16:58;;;;;;;59.38;30.95;;;;;;;;;;4987045;28;20444;-64
2021/03/12 09:19:25;;;;;;;63.85;33.05;;;;;;;;;;5008907;28;20018;-68
2021/03/12 09:21:56;;;;;;;68.13;36.95;;;;;;;;;;5009662;28;20022;-67
2021/03/12 09:24:22;;;;;;;70.97;37.53;;;;;;;;;;5013291;28;20411;-67
2021/03/12 09:26:48;;;;;;;79.88;40.53;;;;;;;;;;5013399;28;20117;-71
2021/03/12 09:29:14;;;;;;;70.55;38.70;;;;;;;;;;4999997;28;20034;-66
2021/03/12 09:31:41;;;;;;;74.57;40.10;;;;;;;;;;5003628;28;20022;-72
2021/03/12 09:34:09;;;;;;;75.30;39.70;;;;;;;;;;5001937;28;20023;-65
2021/03/12 09:36:37;;;;;;;75.03;40.78;;;;;;;;;;4981607;28;20032;-67
2021/03/12 09:39:12;;;;;;;72.72;40.70;;;;;;;;;;4995343;28;20037;-69
2021/03/12 09:41:43;;;;;;;74.40;41.65;;;;;;;;;;4992392;28;20026;-69
2021/03/12 09:44:13;;;;;;;70.75;37.03;;;;;;;;;;4995268;28;20175;-69
2021/03/12 09:46:40;;;;;;;62.53;33.08;;;;;;;;;;4986942;28;20022;-69
2021/03/12 09:49:08;;;;;;;62.22;31.58;;;;;;;;;;5003957;28;20029;-70
2021/03/12 09:51:34;;;;;;;56.80;29.85;;;;;;;;;;5003097;28;20477;-69
2021/03/12 09:54:01;;;;;;;50.38;28.98;;;;;;;;;;5003189;28;20034;-70
2021/03/12 09:56:27;;;;;;;52.53;28.63;;;;;;;;;;5001948;28;20392;-66
2021/03/12 09:58:53;;;;;;;51.17;29.17;;;;;;;;;;5002653;28;20026;-69
2021/03/12 10:01:20;;;;;;;53.00;29.67;;;;;;;;;;5003172;28;20037;-68
2021/03/12 10:03:47;;;;;;;57.03;31.92;;;;;;;;;;4981517;28;20496;-73
2021/03/12 10:06:14;;;;;;;55.42;31.30;;;;;;;;;;5001847;28;20041;-68
2021/03/12 10:08:59;;;;;;;48.88;28.83;;;;;;;;;;5001662;28;20476;-69
2021/03/12 10:11:25;;;;;;;43.15;24.00;;;;;;;;;;5002123;28;20615;-70
2021/03/12 10:13:51;;;;;;;36.90;22.27;;;;;;;;;;5003467;28;20034;-71
2021/03/12 10:16:17;;;;;;;49.45;28.10;;;;;;;;;;5002186;28;20018;-70
2021/03/12 10:18:43;;;;;;;65.30;38.47;;;;;;;;;;5003193;28;20118;-68
2021/03/12 10:21:10;;;;;;;61.55;35.38;;;;;;;;;;5001439;28;20038;-71
2021/03/12 10:23:36;;;;;;;38.63;22.05;;;;;;;;;;4990400;28;20018;-71
2021/03/12 10:26:05;;;;;;;26.83;15.85;;;;;;;;;;5004007;28;20033;-70
2021/03/12 10:28:33;;;;;;;27.30;15.23;;;;;;;;;;5009372;28;20030;-68
2021/03/12 10:31:00;;;;;;;24.38;13.43;;;;;;;;;;4991382;28;20030;-69
2021/03/12 10:33:29;;;;;;;25.15;13.23;;;;;;;;;;5003156;28;20050;-68
2021/03/12 10:35:56;;;;;;;23.48;13.60;;;;;;;;;;5003863;28;20124;-71
2021/03/12 10:38:22;;;;;;;27.75;13.93;;;;;;;;;;5004224;28;20017;-71
2021/03/12 10:40:49;;;;;;;27.40;14.05;;;;;;;;;;4989401;28;20108;-69
2021/03/12 10:43:29;;;;;;;24.85;13.60;;;;;;;;;;5007663;28;20033;-68
2021/03/12 10:45:57;;;;;;;25.52;13.38;;;;;;;;;;5001855;28;20470;-68
2021/03/12 10:48:27;;;;;;;27.75;14.82;;;;;;;;;;4980468;28;20055;-68
2021/03/12 10:50:55;;;;;;;27.23;13.88;;;;;;;;;;4975480;28;20026;-67
2021/03/12 10:53:21;;;;;;;23.70;13.23;;;;;;;;;;4985125;28;20378;-72
2021/03/12 10:55:52;;;;;;;28.38;14.43;;;;;;;;;;5002824;28;20029;-71
2021/03/12 10:58:32;;;;;;;27.33;14.77;;;;;;;;;;4999166;28;20395;-71
2021/03/12 11:01:04;;;;;;;26.02;14.80;;;;;;;;;;4998066;28;20045;-69
2021/03/12 11:03:30;;;;;;;27.30;15.50;;;;;;;;;;4998989;28;20469;-69
2021/03/12 11:05:56;;;;;;;29.17;15.70;;;;;;;;;;5002837;28;20014;-70
2021/03/12 11:08:22;;;;;;;24.40;15.02;;;;;;;;;;5005812;28;20361;-71
2021/03/12 11:10:49;;;;;;;23.80;14.77;;;;;;;;;;4984573;28;20049;-70
2021/03/12 11:13:15;;;;;;;25.98;15.13;;;;;;;;;;4979892;28;20030;-72
2021/03/12 11:15:41;;;;;;;24.65;15.70;;;;;;;;;;4985247;28;20026;-73
2021/03/12 11:18:07;;;;;;;22.58;14.32;;;;;;;;;;4987750;28;20026;-71
2021/03/12 11:20:34;;;;;;;27.40;14.68;;;;;;;;;;4995195;28;20028;-72
2021/03/12 11:23:00;;;;;;;23.38;14.25;;;;;;;;;;5015327;28;20018;-71
2021/03/12 11:25:26;;;;;;;20.95;13.43;;;;;;;;;;4991369;28;20405;-72
2021/03/12 11:27:52;;;;;;;24.40;13.50;;;;;;;;;;4999340;28;20046;-72
2021/03/12 11:30:20;;;;;;;22.60;14.25;;;;;;;;;;5005244;28;20101;-72
2021/03/12 11:32:46;;;;;;;22.20;12.90;;;;;;;;;;4988796;28;20033;-71
2021/03/12 11:35:16;;;;;;;20.98;13.50;;;;;;;;;;4992232;28;20491;-73
2021/03/12 11:37:42;;;;;;;23.15;13.30;;;;;;;;;;4985805;28;20022;-70
2021/03/12 11:40:09;;;;;;;20.42;12.52;;;;;;;;;;4992436;28;20905;-69
2021/03/12 11:42:36;;;;;;;21.10;12.55;;;;;;;;;;5009083;28;20022;-70
2021/03/12 11:45:04;;;;;;;21.10;13.05;;;;;;;;;;4992101;28;20037;-70
2021/03/12 11:47:30;;;;;;;22.63;13.90;;;;;;;;;;5013973;28;20033;-69
2021/03/12 11:50:09;;;;;;;22.38;12.90;;;;;;;;;;4997172;28;20790;-71
2021/03/12 11:52:41;;;;;;;18.45;10.80;;;;;;;;;;4985353;28;20493;-71
2021/03/12 11:55:08;;;;;;;21.23;11.82;;;;;;;;;;5014899;28;20026;-72
2021/03/12 11:57:36;;;;;;;20.63;11.77;;;;;;;;;;5014735;28;20029;-71
2021/03/12 12:00:04;;;;;;;16.67;9.75;;;;;;;;;;5014447;28;20029;-70
2021/03/12 12:02:30;;;;;;;14.98;9.52;;;;;;;;;;5014534;28;20026;-73
2021/03/12 12:04:58;;;;;;;20.02;12.55;;;;;;;;;;5015240;28;20084;-74
2021/03/12 12:07:24;;;;;;;21.42;12.45;;;;;;;;;;5004437;28;20126;-73
2021/03/12 12:09:52;;;;;;;22.45;13.25;;;;;;;;;;4987196;28;20045;-75
2021/03/12 12:12:21;;;;;;;23.15;12.65;;;;;;;;;;4986216;28;20030;-71
2021/03/12 12:14:47;;;;;;;21.27;12.32;;;;;;;;;;4992277;28;20030;-73
2021/03/12 12:17:14;;;;;;;15.73;9.75;;;;;;;;;;4999882;28;20029;-70
2021/03/12 12:19:41;;;;;;;20.08;11.13;;;;;;;;;;5002475;28;20018;-72
2021/03/12 12:22:09;;;;;;;18.58;11.80;;;;;;;;;;4981708;28;20123;-70
2021/03/12 12:24:36;;;;;;;19.75;12.80;;;;;;;;;;4978201;28;20084;-70
2021/03/12 12:27:03;;;;;;;18.33;11.57;;;;;;;;;;4981902;28;20041;-69
2021/03/12 12:29:29;;;;;;;18.65;11.85;;;;;;;;;;4995394;28;20030;-70
2021/03/12 12:31:55;;;;;;;29.90;15.80;;;;;;;;;;5006953;28;20030;-72
2021/03/12 12:34:21;;;;;;;31.05;17.45;;;;;;;;;;4994086;28;20500;-71
2021/03/12 12:36:47;;;;;;;24.85;15.27;;;;;;;;;;4996332;28;20026;-71
2021/03/12 12:39:14;;;;;;;21.42;12.45;;;;;;;;;;5008191;28;20475;-73
2021/03/12 12:41:40;;;;;;;22.25;13.05;;;;;;;;;;5012789;28;20045;-72
2021/03/12 12:44:12;;;;;;;19.98;11.40;;;;;;;;;;5007373;28;20476;-70
2021/03/12 12:46:41;;;;;;;39.50;21.50;;;;;;;;;;5018783;28;20030;-70
2021/03/12 12:49:07;;;;;;;35.40;18.17;;;;;;;;;;4994396;28;20378;-72
2021/03/12 12:51:34;;;;;;;25.52;15.52;;;;;;;;;;4991486;28;20031;-70
2021/03/12 12:54:00;;;;;;;31.70;18.95;;;;;;;;;;5015792;28;20021;-71
2021/03/12 12:56:26;;;;;;;29.20;16.83;;;;;;;;;;5013251;28;20033;-71
2021/03/12 12:58:52;;;;;;;30.30;17.13;;;;;;;;;;4997090;28;20377;-71
2021/03/12 13:01:19;;;;;;;36.50;19.52;;;;;;;;;;5001485;28;20469;-72
2021/03/12 13:03:45;;;;;;;44.55;24.58;;;;;;;;;;4998075;28;20064;-71
2021/03/12 13:06:11;;;;;;;42.60;24.17;;;;;;;;;;5015481;28;20048;-70
2021/03/12 13:08:37;;;;;;;47.22;27.67;;;;;;;;;;5003769;28;20026;-71
2021/03/12 13:11:04;;;;;;;36.42;21.33;;;;;;;;;;5012148;28;20033;-69
2021/03/12 13:13:30;;;;;;;33.58;16.75;;;;;;;;;;4994491;28;20473;-69
2021/03/12 13:15:57;;;;;;;27.00;15.48;;;;;;;;;;5012869;28;20040;-72
2021/03/12 13:18:25;;;;;;;25.67;15.88;;;;;;;;;;4999903;28;20029;-74
2021/03/12 13:20:53;;;;;;;25.80;15.13;;;;;;;;;;4994059;28;20359;-70
2021/03/12 13:23:23;;;;;;;23.95;14.85;;;;;;;;;;5002353;28;20030;-73
2021/03/12 13:25:49;;;;;;;24.65;14.68;;;;;;;;;;4978803;28;20512;-72
2021/03/12 13:28:16;;;;;;;22.73;15.35;;;;;;;;;;4986257;28;20018;-70
2021/03/12 13:30:42;;;;;;;26.98;16.05;;;;;;;;;;5007945;28;20030;-71
2021/03/12 13:33:08;;;;;;;51.65;26.17;;;;;;;;;;4985340;28;20030;-70
2021/03/12 13:35:35;;;;;;;26.13;15.57;;;;;;;;;;4979854;28;20380;-70
2021/03/12 13:38:01;;;;;;;29.02;17.80;;;;;;;;;;5002552;28;20057;-73
2021/03/12 13:40:27;;;;;;;27.42;17.45;;;;;;;;;;4986486;28;20017;-69
2021/03/12 13:43:09;;;;;;;28.88;17.55;;;;;;;;;;5006989;28;20029;-74
2021/03/12 13:45:36;;;;;;;27.98;18.02;;;;;;;;;;5007013;28;20026;-72
2021/03/12 13:48:02;;;;;;;25.42;15.48;;;;;;;;;;5004553;28;20033;-69
2021/03/12 13:50:30;;;;;;;21.77;14.15;;;;;;;;;;5008769;28;20037;-69
2021/03/12 13:52:56;;;;;;;24.15;14.65;;;;;;;;;;4988209;28;20045;-71
2021/03/12 13:55:22;;;;;;;27.52;16.23;;;;;;;;;;5001675;28;20030;-68
2021/03/12 13:57:48;;;;;;;52.65;28.23;;;;;;;;;;5002293;28;20105;-73
2021/03/12 14:00:15;;;;;;;42.80;23.85;;;;;;;;;;5001968;28;20022;-71
2021/03/12 14:02:42;;;;;;;31.70;20.20;;;;;;;;;;5002160;28;20129;-69
2021/03/12 14:05:08;;;;;;;28.90;17.95;;;;;;;;;;5002403;28;20026;-71
2021/03/12 14:07:34;;;;;;;32.63;20.60;;;;;;;;;;5003499;28;20018;-72
2021/03/12 14:10:00;;;;;;;30.35;17.85;;;;;;;;;;4978953;28;20034;-71
2021/03/12 14:12:27;;;;;;;34.35;19.98;;;;;;;;;;4997422;28;20110;-69
2021/03/12 14:14:53;;;;;;;37.65;20.63;;;;;;;;;;4999898;28;20033;-73
2021/03/12 14:17:23;;;;;;;34.80;20.63;;;;;;;;;;4989475;28;20436;-74
2021/03/12 14:19:50;;;;;;;57.70;29.13;;;;;;;;;;4986585;28;20120;-74